Date,TemperatureHighF,TemperatureAvgF,TemperatureLowF,DewpointHighF,DewpointAvgF,DewpointLowF,HumidityHigh,HumidityAvg,HumidityLow,PressureMaxIn,PressureMinIn,WindSpeedMaxMPH,WindSpeedAvgMPH,GustSpeedMaxMPH,PrecipitationSumIn
2013-1-5,45.3,43.9,43.2,45.3,43.9,43.2,100,100,100,29.91,29.88,10,6,15,3.44
2013-1-6,51.1,45.7,40.8,47.3,43.1,40.2,100,91,67,30.00,29.88,8,2,16,0.00
2013-1-7,59.3,47.6,39.2,49.4,41.7,38.1,100,83,49,30.06,29.94,4,1,6,0.00
2013-1-8,60.8,48.8,41.0,50.7,41.6,38.7,100,79,47,30.06,29.91,6,2,9,0.00
2013-1-9,53.3,46.5,41.9,49.3,39.9,29.6,100,79,53,29.94,29.80,9,3,16,0.00
2013-1-10,51.3,43.7,38.6,34.9,29.9,26.4,78,59,39,30.00,29.88,7,3,13,0.00
2013-1-11,53.2,43.8,37.9,39.8,31.0,25.8,88,62,41,30.06,29.91,7,2,11,0.00
2013-1-12,50.6,41.7,33.4,37.0,26.6,19.1,96,59,31,30.06,29.94,6,2,8,0.00
2013-1-13,50.3,40.1,31.1,31.0,20.3,14.4,68,45,30,30.09,29.97,8,2,13,0.00
2013-1-14,55.0,43.0,32.7,20.8,16.7,11.8,49,35,26,30.21,30.03,10,-7,16,0.00
2013-1-15,56.7,42.3,33.6,26.8,22.6,18.6,64,47,30,30.30,30.21,8,2,12,0.00
2013-1-16,58.6,44.5,34.3,35.4,27.4,21.6,84,53,31,30.24,30.06,8,2,12,0.00
2013-1-17,64.2,51.3,40.3,32.4,26.5,21.7,61,39,26,30.09,29.94,10,4,16,0.00
2013-1-18,65.9,52.4,42.6,33.5,27.6,19.1,61,40,25,30.03,29.94,9,4,17,0.00
2013-1-19,65.1,51.5,39.4,33.2,27.2,19.1,74,41,28,30.06,29.94,10,4,19,0.00
2013-1-20,67.0,52.5,41.0,29.0,24.1,17.9,52,34,24,30.06,29.94,8,-25,14,0.00
2013-1-21,66.6,51.2,38.7,35.0,29.7,20.2,62,45,28,30.00,29.88,8,4,14,0.00
2013-1-22,64.0,52.9,44.6,37.5,33.8,29.4,58,49,35,29.91,29.80,9,4,14,0.00
2013-1-23,55.4,51.2,48.2,49.9,43.2,36.5,100,76,55,29.88,29.77,9,-53,15,0.17
2013-1-24,60.2,53.2,48.7,52.0,49.7,47.5,100,89,69,30.00,29.85,8,-33,13,0.00
2013-1-25,64.7,55.4,49.6,58.9,50.5,47.5,100,85,60,30.00,29.83,5,1,8,0.00
2013-1-26,60.6,51.7,45.7,52.4,42.0,33.0,100,73,38,29.88,29.77,10,4,17,0.00
2013-1-27,55.5,47.3,40.2,36.8,33.2,28.2,83,60,36,29.97,29.85,6,2,9,0.00
2013-1-28,58.3,48.4,40.6,40.9,35.8,32.5,88,63,39,30.09,29.97,9,3,13,0.00
2013-1-29,59.5,49.9,41.8,39.7,36.6,32.7,81,62,38,30.15,30.03,5,2,9,0.00
2013-1-30,63.4,51.8,42.3,44.3,39.1,36.3,88,64,38,30.12,30.03,5,2,6,0.00
2013-1-31,66.7,52.4,41.4,50.8,39.6,37.3,98,66,36,30.09,29.97,6,2,10,0.00